sensor_id;sensor_type;location;lat;lon;timestamp;P1;durP1;ratioP1;P2;durP2;ratioP2
2680;SDS011;1350;42.134;24.708;2024-01-30T00:00:30;11.57;;;7.30;;
2680;SDS011;1350;42.134;24.708;2024-01-30T00:02:57;11.23;;;5.90;;
2680;SDS011;1350;42.134;24.708;2024-01-30T00:05:24;12.05;;;5.88;;
2680;SDS011;1350;42.134;24.708;2024-01-30T00:07:52;11.32;;;7.00;;
2680;SDS011;1350;42.134;24.708;2024-01-30T00:10:19;11.75;;;7.05;;
2680;SDS011;1350;42.134;24.708;2024-01-30T00:12:46;14.70;;;6.88;;
2680;SDS011;1350;42.134;24.708;2024-01-30T00:15:13;13.25;;;7.30;;
2680;SDS011;1350;42.134;24.708;2024-01-30T00:17:40;13.68;;;7.82;;
2680;SDS011;1350;42.134;24.708;2024-01-30T00:20:07;13.07;;;6.80;;
2680;SDS011;1350;42.134;24.708;2024-01-30T00:22:35;10.88;;;6.82;;
2680;SDS011;1350;42.134;24.708;2024-01-30T00:25:03;11.80;;;6.60;;
2680;SDS011;1350;42.134;24.708;2024-01-30T00:27:31;10.55;;;6.10;;
2680;SDS011;1350;42.134;24.708;2024-01-30T00:29:58;11.18;;;6.47;;
2680;SDS011;1350;42.134;24.708;2024-01-30T00:32:25;12.15;;;7.00;;
2680;SDS011;1350;42.134;24.708;2024-01-30T00:34:52;9.20;;;5.97;;
2680;SDS011;1350;42.134;24.708;2024-01-30T00:37:19;13.88;;;7.47;;
2680;SDS011;1350;42.134;24.708;2024-01-30T00:39:46;10.52;;;5.95;;
2680;SDS011;1350;42.134;24.708;2024-01-30T00:42:14;11.57;;;6.47;;
2680;SDS011;1350;42.134;24.708;2024-01-30T00:44:41;10.52;;;6.28;;
2680;SDS011;1350;42.134;24.708;2024-01-30T00:47:08;14.68;;;8.63;;
2680;SDS011;1350;42.134;24.708;2024-01-30T00:49:35;11.88;;;7.30;;
2680;SDS011;1350;42.134;24.708;2024-01-30T00:52:02;18.58;;;6.85;;
2680;SDS011;1350;42.134;24.708;2024-01-30T00:54:30;11.55;;;6.70;;
2680;SDS011;1350;42.134;24.708;2024-01-30T00:56:56;13.00;;;6.90;;
2680;SDS011;1350;42.134;24.708;2024-01-30T00:59:25;11.85;;;5.90;;
2680;SDS011;1350;42.134;24.708;2024-01-30T01:01:52;13.18;;;7.70;;
2680;SDS011;1350;42.134;24.708;2024-01-30T01:04:19;15.23;;;8.32;;
2680;SDS011;1350;42.134;24.708;2024-01-30T01:06:46;13.27;;;8.23;;
2680;SDS011;1350;42.134;24.708;2024-01-30T01:09:13;17.25;;;8.55;;
2680;SDS011;1350;42.134;24.708;2024-01-30T01:11:40;14.65;;;8.48;;
2680;SDS011;1350;42.134;24.708;2024-01-30T01:14:07;13.07;;;7.72;;
2680;SDS011;1350;42.134;24.708;2024-01-30T01:16:35;15.07;;;8.85;;
2680;SDS011;1350;42.134;24.708;2024-01-30T01:19:02;16.52;;;8.52;;
2680;SDS011;1350;42.134;24.708;2024-01-30T01:21:31;15.32;;;7.25;;
2680;SDS011;1350;42.134;24.708;2024-01-30T01:23:58;11.52;;;6.95;;
2680;SDS011;1350;42.134;24.708;2024-01-30T01:26:25;12.18;;;6.80;;
2680;SDS011;1350;42.134;24.708;2024-01-30T01:28:52;13.68;;;6.60;;
2680;SDS011;1350;42.134;24.708;2024-01-30T01:31:19;12.15;;;7.18;;
2680;SDS011;1350;42.134;24.708;2024-01-30T01:33:51;12.82;;;7.57;;
2680;SDS011;1350;42.134;24.708;2024-01-30T01:36:18;9.68;;;6.40;;
2680;SDS011;1350;42.134;24.708;2024-01-30T01:38:45;13.05;;;7.10;;
2680;SDS011;1350;42.134;24.708;2024-01-30T01:41:12;11.40;;;7.18;;
2680;SDS011;1350;42.134;24.708;2024-01-30T01:43:38;11.15;;;6.50;;
2680;SDS011;1350;42.134;24.708;2024-01-30T01:46:05;11.07;;;6.60;;
2680;SDS011;1350;42.134;24.708;2024-01-30T01:48:33;12.48;;;6.07;;
2680;SDS011;1350;42.134;24.708;2024-01-30T01:51:01;9.13;;;5.53;;
2680;SDS011;1350;42.134;24.708;2024-01-30T01:53:30;13.55;;;7.40;;
2680;SDS011;1350;42.134;24.708;2024-01-30T01:55:57;12.30;;;7.15;;
2680;SDS011;1350;42.134;24.708;2024-01-30T01:58:24;16.63;;;8.45;;
2680;SDS011;1350;42.134;24.708;2024-01-30T02:00:55;11.75;;;8.15;;
2680;SDS011;1350;42.134;24.708;2024-01-30T02:03:23;15.30;;;9.45;;
2680;SDS011;1350;42.134;24.708;2024-01-30T02:05:50;12.52;;;8.10;;
2680;SDS011;1350;42.134;24.708;2024-01-30T02:08:19;13.38;;;8.77;;
2680;SDS011;1350;42.134;24.708;2024-01-30T02:10:46;15.60;;;9.25;;
2680;SDS011;1350;42.134;24.708;2024-01-30T02:13:14;14.80;;;8.60;;
2680;SDS011;1350;42.134;24.708;2024-01-30T02:15:40;13.30;;;8.27;;
2680;SDS011;1350;42.134;24.708;2024-01-30T02:18:07;15.10;;;9.50;;
2680;SDS011;1350;42.134;24.708;2024-01-30T02:20:34;16.70;;;8.65;;
2680;SDS011;1350;42.134;24.708;2024-01-30T02:23:03;19.67;;;10.43;;
2680;SDS011;1350;42.134;24.708;2024-01-30T02:25:32;12.02;;;8.18;;
2680;SDS011;1350;42.134;24.708;2024-01-30T02:28:00;13.70;;;8.70;;
2680;SDS011;1350;42.134;24.708;2024-01-30T02:30:27;16.50;;;9.10;;
2680;SDS011;1350;42.134;24.708;2024-01-30T02:32:54;13.35;;;8.77;;
2680;SDS011;1350;42.134;24.708;2024-01-30T02:35:21;18.90;;;10.23;;
2680;SDS011;1350;42.134;24.708;2024-01-30T02:37:48;17.02;;;9.88;;
2680;SDS011;1350;42.134;24.708;2024-01-30T02:40:16;18.45;;;9.35;;
2680;SDS011;1350;42.134;24.708;2024-01-30T02:42:43;16.40;;;9.43;;
2680;SDS011;1350;42.134;24.708;2024-01-30T02:45:10;15.73;;;9.68;;
2680;SDS011;1350;42.134;24.708;2024-01-30T02:47:38;13.73;;;8.88;;
2680;SDS011;1350;42.134;24.708;2024-01-30T02:50:06;17.48;;;8.85;;
2680;SDS011;1350;42.134;24.708;2024-01-30T02:52:33;15.18;;;9.25;;
2680;SDS011;1350;42.134;24.708;2024-01-30T02:55:00;13.85;;;7.80;;
2680;SDS011;1350;42.134;24.708;2024-01-30T02:57:29;16.10;;;9.50;;
2680;SDS011;1350;42.134;24.708;2024-01-30T02:59:56;13.63;;;8.82;;
2680;SDS011;1350;42.134;24.708;2024-01-30T03:02:23;15.27;;;8.95;;
2680;SDS011;1350;42.134;24.708;2024-01-30T03:04:50;15.32;;;9.10;;
2680;SDS011;1350;42.134;24.708;2024-01-30T03:07:17;12.77;;;9.23;;
2680;SDS011;1350;42.134;24.708;2024-01-30T03:09:44;17.70;;;9.60;;
2680;SDS011;1350;42.134;24.708;2024-01-30T03:12:11;14.68;;;8.93;;
2680;SDS011;1350;42.134;24.708;2024-01-30T03:14:39;15.30;;;10.95;;
2680;SDS011;1350;42.134;24.708;2024-01-30T03:17:06;11.90;;;8.38;;
2680;SDS011;1350;42.134;24.708;2024-01-30T03:19:34;15.55;;;9.00;;
2680;SDS011;1350;42.134;24.708;2024-01-30T03:22:01;17.10;;;8.60;;
2680;SDS011;1350;42.134;24.708;2024-01-30T03:24:28;12.23;;;7.90;;
2680;SDS011;1350;42.134;24.708;2024-01-30T03:26:55;15.27;;;9.68;;
2680;SDS011;1350;42.134;24.708;2024-01-30T03:29:21;16.80;;;9.40;;
2680;SDS011;1350;42.134;24.708;2024-01-30T03:31:50;13.30;;;8.13;;
2680;SDS011;1350;42.134;24.708;2024-01-30T03:34:17;13.55;;;8.15;;
2680;SDS011;1350;42.134;24.708;2024-01-30T03:36:44;11.63;;;7.28;;
2680;SDS011;1350;42.134;24.708;2024-01-30T03:39:11;15.50;;;9.48;;
2680;SDS011;1350;42.134;24.708;2024-01-30T03:41:38;13.27;;;8.07;;
2680;SDS011;1350;42.134;24.708;2024-01-30T03:44:05;13.32;;;7.43;;
2680;SDS011;1350;42.134;24.708;2024-01-30T03:46:32;14.10;;;9.65;;
2680;SDS011;1350;42.134;24.708;2024-01-30T03:49:01;14.63;;;8.95;;
2680;SDS011;1350;42.134;24.708;2024-01-30T03:51:28;15.82;;;8.82;;
2680;SDS011;1350;42.134;24.708;2024-01-30T03:53:55;15.43;;;8.48;;
2680;SDS011;1350;42.134;24.708;2024-01-30T03:56:22;16.98;;;8.82;;
2680;SDS011;1350;42.134;24.708;2024-01-30T03:58:51;14.35;;;8.75;;
2680;SDS011;1350;42.134;24.708;2024-01-30T04:01:17;19.20;;;10.20;;
2680;SDS011;1350;42.134;24.708;2024-01-30T04:03:44;20.67;;;10.30;;
2680;SDS011;1350;42.134;24.708;2024-01-30T04:06:13;29.95;;;13.20;;
2680;SDS011;1350;42.134;24.708;2024-01-30T04:08:40;15.80;;;10.75;;
2680;SDS011;1350;42.134;24.708;2024-01-30T04:11:07;21.17;;;10.05;;
2680;SDS011;1350;42.134;24.708;2024-01-30T04:13:34;20.10;;;10.52;;
2680;SDS011;1350;42.134;24.708;2024-01-30T04:16:01;16.83;;;9.75;;
2680;SDS011;1350;42.134;24.708;2024-01-30T04:18:29;16.08;;;10.10;;
2680;SDS011;1350;42.134;24.708;2024-01-30T04:20:56;18.00;;;9.60;;
2680;SDS011;1350;42.134;24.708;2024-01-30T04:23:24;20.63;;;9.80;;
2680;SDS011;1350;42.134;24.708;2024-01-30T04:25:51;19.40;;;10.50;;
2680;SDS011;1350;42.134;24.708;2024-01-30T04:28:18;16.77;;;9.85;;
2680;SDS011;1350;42.134;24.708;2024-01-30T04:30:45;19.90;;;11.70;;
2680;SDS011;1350;42.134;24.708;2024-01-30T04:33:12;25.45;;;12.88;;
2680;SDS011;1350;42.134;24.708;2024-01-30T04:35:39;21.88;;;12.80;;
2680;SDS011;1350;42.134;24.708;2024-01-30T04:38:06;27.02;;;17.55;;
2680;SDS011;1350;42.134;24.708;2024-01-30T04:40:34;21.33;;;12.00;;
2680;SDS011;1350;42.134;24.708;2024-01-30T04:43:01;18.67;;;12.82;;
2680;SDS011;1350;42.134;24.708;2024-01-30T04:45:28;21.05;;;11.95;;
2680;SDS011;1350;42.134;24.708;2024-01-30T04:47:55;25.90;;;14.68;;
2680;SDS011;1350;42.134;24.708;2024-01-30T04:50:22;26.55;;;14.20;;
2680;SDS011;1350;42.134;24.708;2024-01-30T04:52:49;22.60;;;12.88;;
2680;SDS011;1350;42.134;24.708;2024-01-30T04:55:16;23.90;;;14.00;;
2680;SDS011;1350;42.134;24.708;2024-01-30T04:57:45;24.52;;;14.75;;
2680;SDS011;1350;42.134;24.708;2024-01-30T05:00:12;24.02;;;14.70;;
2680;SDS011;1350;42.134;24.708;2024-01-30T05:02:39;25.38;;;16.58;;
2680;SDS011;1350;42.134;24.708;2024-01-30T05:05:06;26.30;;;15.50;;
2680;SDS011;1350;42.134;24.708;2024-01-30T05:07:33;22.65;;;15.45;;
2680;SDS011;1350;42.134;24.708;2024-01-30T05:10:00;26.65;;;16.65;;
2680;SDS011;1350;42.134;24.708;2024-01-30T05:12:28;23.45;;;15.73;;
2680;SDS011;1350;42.134;24.708;2024-01-30T05:14:56;27.77;;;15.95;;
2680;SDS011;1350;42.134;24.708;2024-01-30T05:17:23;34.17;;;14.52;;
2680;SDS011;1350;42.134;24.708;2024-01-30T05:19:50;32.50;;;15.52;;
2680;SDS011;1350;42.134;24.708;2024-01-30T05:22:17;22.48;;;14.48;;
2680;SDS011;1350;42.134;24.708;2024-01-30T05:24:44;28.88;;;15.00;;
2680;SDS011;1350;42.134;24.708;2024-01-30T05:27:11;22.38;;;14.82;;
2680;SDS011;1350;42.134;24.708;2024-01-30T05:29:39;22.58;;;17.33;;
2680;SDS011;1350;42.134;24.708;2024-01-30T05:32:07;25.35;;;15.20;;
2680;SDS011;1350;42.134;24.708;2024-01-30T05:34:35;34.30;;;16.40;;
2680;SDS011;1350;42.134;24.708;2024-01-30T05:37:03;27.75;;;15.82;;
2680;SDS011;1350;42.134;24.708;2024-01-30T05:39:30;44.03;;;15.82;;
2680;SDS011;1350;42.134;24.708;2024-01-30T05:41:58;27.65;;;15.60;;
2680;SDS011;1350;42.134;24.708;2024-01-30T05:44:25;25.98;;;16.30;;
2680;SDS011;1350;42.134;24.708;2024-01-30T05:46:52;31.75;;;19.20;;
2680;SDS011;1350;42.134;24.708;2024-01-30T05:49:20;35.55;;;18.08;;
2680;SDS011;1350;42.134;24.708;2024-01-30T05:51:47;93.85;;;48.72;;
2680;SDS011;1350;42.134;24.708;2024-01-30T05:54:14;40.28;;;20.75;;
2680;SDS011;1350;42.134;24.708;2024-01-30T05:56:41;40.63;;;17.58;;
2680;SDS011;1350;42.134;24.708;2024-01-30T05:59:08;27.98;;;16.55;;
2680;SDS011;1350;42.134;24.708;2024-01-30T06:01:35;42.67;;;16.75;;
2680;SDS011;1350;42.134;24.708;2024-01-30T06:04:02;21.27;;;14.27;;
2680;SDS011;1350;42.134;24.708;2024-01-30T06:06:31;21.73;;;14.23;;
2680;SDS011;1350;42.134;24.708;2024-01-30T06:08:58;26.90;;;13.65;;
2680;SDS011;1350;42.134;24.708;2024-01-30T06:11:25;30.15;;;17.77;;
2680;SDS011;1350;42.134;24.708;2024-01-30T06:13:52;23.33;;;13.65;;
2680;SDS011;1350;42.134;24.708;2024-01-30T06:16:19;24.90;;;14.23;;
2680;SDS011;1350;42.134;24.708;2024-01-30T06:18:47;27.90;;;13.02;;
2680;SDS011;1350;42.134;24.708;2024-01-30T06:21:14;26.73;;;14.82;;
2680;SDS011;1350;42.134;24.708;2024-01-30T06:23:43;22.60;;;14.65;;
2680;SDS011;1350;42.134;24.708;2024-01-30T06:26:10;20.60;;;12.10;;
2680;SDS011;1350;42.134;24.708;2024-01-30T06:28:37;16.58;;;12.63;;
2680;SDS011;1350;42.134;24.708;2024-01-30T06:31:03;36.28;;;13.13;;
2680;SDS011;1350;42.134;24.708;2024-01-30T06:33:30;21.67;;;12.68;;
2680;SDS011;1350;42.134;24.708;2024-01-30T06:35:57;21.17;;;12.80;;
2680;SDS011;1350;42.134;24.708;2024-01-30T06:38:24;26.33;;;15.57;;
2680;SDS011;1350;42.134;24.708;2024-01-30T06:40:53;24.80;;;13.10;;
2680;SDS011;1350;42.134;24.708;2024-01-30T06:43:19;19.58;;;13.00;;
2680;SDS011;1350;42.134;24.708;2024-01-30T06:45:46;19.70;;;12.95;;
2680;SDS011;1350;42.134;24.708;2024-01-30T06:48:13;33.35;;;13.18;;
2680;SDS011;1350;42.134;24.708;2024-01-30T06:50:40;20.00;;;12.32;;
2680;SDS011;1350;42.134;24.708;2024-01-30T06:53:07;26.33;;;14.85;;
2680;SDS011;1350;42.134;24.708;2024-01-30T06:55:34;21.27;;;14.23;;
2680;SDS011;1350;42.134;24.708;2024-01-30T06:58:03;21.10;;;13.63;;
2680;SDS011;1350;42.134;24.708;2024-01-30T07:00:30;23.83;;;11.98;;
2680;SDS011;1350;42.134;24.708;2024-01-30T07:02:57;42.35;;;16.40;;
2680;SDS011;1350;42.134;24.708;2024-01-30T07:05:24;23.02;;;12.18;;
2680;SDS011;1350;42.134;24.708;2024-01-30T07:07:51;21.45;;;14.13;;
2680;SDS011;1350;42.134;24.708;2024-01-30T07:10:18;38.08;;;13.85;;
2680;SDS011;1350;42.134;24.708;2024-01-30T07:12:45;33.45;;;14.20;;
2680;SDS011;1350;42.134;24.708;2024-01-30T07:15:14;23.85;;;14.85;;
2680;SDS011;1350;42.134;24.708;2024-01-30T07:17:44;21.70;;;13.95;;
2680;SDS011;1350;42.134;24.708;2024-01-30T07:20:11;23.52;;;14.57;;
2680;SDS011;1350;42.134;24.708;2024-01-30T07:22:39;29.70;;;13.75;;
2680;SDS011;1350;42.134;24.708;2024-01-30T07:25:07;28.77;;;14.32;;
2680;SDS011;1350;42.134;24.708;2024-01-30T07:27:34;61.15;;;17.58;;
2680;SDS011;1350;42.134;24.708;2024-01-30T07:30:01;25.10;;;14.68;;
2680;SDS011;1350;42.134;24.708;2024-01-30T07:32:30;18.15;;;12.07;;
2680;SDS011;1350;42.134;24.708;2024-01-30T07:34:57;29.27;;;13.73;;
2680;SDS011;1350;42.134;24.708;2024-01-30T07:37:24;24.27;;;13.68;;
2680;SDS011;1350;42.134;24.708;2024-01-30T07:39:51;20.10;;;12.40;;
2680;SDS011;1350;42.134;24.708;2024-01-30T07:42:18;15.23;;;10.60;;
2680;SDS011;1350;42.134;24.708;2024-01-30T07:44:45;18.25;;;11.15;;
2680;SDS011;1350;42.134;24.708;2024-01-30T07:47:12;18.77;;;11.45;;
2680;SDS011;1350;42.134;24.708;2024-01-30T07:49:41;20.30;;;12.07;;
2680;SDS011;1350;42.134;24.708;2024-01-30T07:52:08;18.35;;;10.25;;
2680;SDS011;1350;42.134;24.708;2024-01-30T07:54:35;32.63;;;10.88;;
2680;SDS011;1350;42.134;24.708;2024-01-30T07:57:05;20.55;;;9.40;;
2680;SDS011;1350;42.134;24.708;2024-01-30T07:59:32;20.90;;;9.00;;
2680;SDS011;1350;42.134;24.708;2024-01-30T08:01:59;23.75;;;10.27;;
2680;SDS011;1350;42.134;24.708;2024-01-30T08:04:25;15.25;;;9.88;;
2680;SDS011;1350;42.134;24.708;2024-01-30T08:06:54;16.92;;;8.93;;
2680;SDS011;1350;42.134;24.708;2024-01-30T08:09:21;13.27;;;8.52;;
2680;SDS011;1350;42.134;24.708;2024-01-30T08:11:48;16.13;;;9.85;;
2680;SDS011;1350;42.134;24.708;2024-01-30T08:14:15;17.48;;;9.27;;
2680;SDS011;1350;42.134;24.708;2024-01-30T08:16:42;12.70;;;7.60;;
2680;SDS011;1350;42.134;24.708;2024-01-30T08:19:09;37.03;;;8.60;;
2680;SDS011;1350;42.134;24.708;2024-01-30T08:21:35;20.05;;;8.05;;
2680;SDS011;1350;42.134;24.708;2024-01-30T08:24:04;19.40;;;9.30;;
2680;SDS011;1350;42.134;24.708;2024-01-30T08:26:32;15.60;;;9.30;;
2680;SDS011;1350;42.134;24.708;2024-01-30T08:28:59;14.20;;;8.90;;
2680;SDS011;1350;42.134;24.708;2024-01-30T08:31:26;34.53;;;17.23;;
2680;SDS011;1350;42.134;24.708;2024-01-30T08:33:53;33.10;;;17.02;;
2680;SDS011;1350;42.134;24.708;2024-01-30T08:36:20;27.58;;;14.80;;
2680;SDS011;1350;42.134;24.708;2024-01-30T08:38:47;25.30;;;10.00;;
2680;SDS011;1350;42.134;24.708;2024-01-30T08:41:15;15.50;;;10.48;;
2680;SDS011;1350;42.134;24.708;2024-01-30T08:43:42;13.88;;;7.28;;
2680;SDS011;1350;42.134;24.708;2024-01-30T08:46:10;15.23;;;7.85;;
2680;SDS011;1350;42.134;24.708;2024-01-30T08:48:37;31.92;;;8.60;;
2680;SDS011;1350;42.134;24.708;2024-01-30T08:51:04;18.70;;;8.00;;
2680;SDS011;1350;42.134;24.708;2024-01-30T08:53:34;17.83;;;9.50;;
2680;SDS011;1350;42.134;24.708;2024-01-30T08:56:02;20.92;;;7.75;;
2680;SDS011;1350;42.134;24.708;2024-01-30T08:58:30;22.80;;;8.00;;
2680;SDS011;1350;42.134;24.708;2024-01-30T09:00:58;27.70;;;8.05;;
2680;SDS011;1350;42.134;24.708;2024-01-30T09:03:25;13.68;;;7.00;;
2680;SDS011;1350;42.134;24.708;2024-01-30T09:05:52;11.60;;;7.18;;
2680;SDS011;1350;42.134;24.708;2024-01-30T09:08:19;15.07;;;7.70;;
2680;SDS011;1350;42.134;24.708;2024-01-30T09:10:46;14.60;;;7.10;;
2680;SDS011;1350;42.134;24.708;2024-01-30T09:13:15;15.35;;;7.22;;
2680;SDS011;1350;42.134;24.708;2024-01-30T09:15:43;15.00;;;8.13;;
2680;SDS011;1350;42.134;24.708;2024-01-30T09:18:10;17.40;;;8.00;;
2680;SDS011;1350;42.134;24.708;2024-01-30T09:20:37;13.48;;;8.02;;
2680;SDS011;1350;42.134;24.708;2024-01-30T09:23:04;11.77;;;7.28;;
2680;SDS011;1350;42.134;24.708;2024-01-30T09:25:31;19.23;;;11.45;;
2680;SDS011;1350;42.134;24.708;2024-01-30T09:27:59;19.25;;;10.25;;
2680;SDS011;1350;42.134;24.708;2024-01-30T09:30:26;20.33;;;10.90;;
2680;SDS011;1350;42.134;24.708;2024-01-30T09:32:54;18.73;;;8.85;;
2680;SDS011;1350;42.134;24.708;2024-01-30T09:35:21;16.10;;;11.32;;
2680;SDS011;1350;42.134;24.708;2024-01-30T09:37:48;17.23;;;10.23;;
2680;SDS011;1350;42.134;24.708;2024-01-30T09:40:16;17.13;;;9.50;;
2680;SDS011;1350;42.134;24.708;2024-01-30T09:42:45;13.02;;;9.07;;
2680;SDS011;1350;42.134;24.708;2024-01-30T09:45:15;20.70;;;11.13;;
2680;SDS011;1350;42.134;24.708;2024-01-30T09:47:44;26.27;;;11.35;;
2680;SDS011;1350;42.134;24.708;2024-01-30T09:50:13;27.10;;;15.30;;
2680;SDS011;1350;42.134;24.708;2024-01-30T09:52:41;34.97;;;15.32;;
2680;SDS011;1350;42.134;24.708;2024-01-30T09:55:09;19.80;;;13.90;;
2680;SDS011;1350;42.134;24.708;2024-01-30T09:57:36;45.75;;;15.05;;
2680;SDS011;1350;42.134;24.708;2024-01-30T10:00:03;23.73;;;14.40;;
2680;SDS011;1350;42.134;24.708;2024-01-30T10:02:33;26.27;;;11.93;;
2680;SDS011;1350;42.134;24.708;2024-01-30T10:05:01;15.32;;;10.00;;
2680;SDS011;1350;42.134;24.708;2024-01-30T10:07:30;19.42;;;13.05;;
2680;SDS011;1350;42.134;24.708;2024-01-30T10:09:57;26.38;;;13.07;;
2680;SDS011;1350;42.134;24.708;2024-01-30T10:12:25;17.83;;;12.45;;
2680;SDS011;1350;42.134;24.708;2024-01-30T10:14:53;23.95;;;13.63;;
2680;SDS011;1350;42.134;24.708;2024-01-30T10:17:24;25.02;;;12.07;;
2680;SDS011;1350;42.134;24.708;2024-01-30T10:19:52;21.33;;;11.70;;
2680;SDS011;1350;42.134;24.708;2024-01-30T10:22:19;21.35;;;12.82;;
2680;SDS011;1350;42.134;24.708;2024-01-30T10:24:47;22.02;;;11.30;;
2680;SDS011;1350;42.134;24.708;2024-01-30T10:27:16;23.98;;;11.10;;
2680;SDS011;1350;42.134;24.708;2024-01-30T10:29:51;24.38;;;15.35;;
2680;SDS011;1350;42.134;24.708;2024-01-30T10:32:19;27.48;;;12.27;;
2680;SDS011;1350;42.134;24.708;2024-01-30T10:34:46;17.38;;;10.70;;
2680;SDS011;1350;42.134;24.708;2024-01-30T10:37:13;21.58;;;11.20;;
2680;SDS011;1350;42.134;24.708;2024-01-30T10:39:42;13.63;;;9.45;;
2680;SDS011;1350;42.134;24.708;2024-01-30T10:42:12;13.77;;;10.10;;
2680;SDS011;1350;42.134;24.708;2024-01-30T10:44:44;19.33;;;8.07;;
2680;SDS011;1350;42.134;24.708;2024-01-30T10:47:26;13.52;;;7.93;;
2680;SDS011;1350;42.134;24.708;2024-01-30T10:49:53;19.70;;;8.55;;
2680;SDS011;1350;42.134;24.708;2024-01-30T10:52:21;15.07;;;8.70;;
2680;SDS011;1350;42.134;24.708;2024-01-30T10:54:54;15.18;;;9.35;;
2680;SDS011;1350;42.134;24.708;2024-01-30T10:57:23;14.10;;;8.05;;
2680;SDS011;1350;42.134;24.708;2024-01-30T10:59:51;23.85;;;9.25;;
2680;SDS011;1350;42.134;24.708;2024-01-30T11:02:21;17.55;;;9.57;;
2680;SDS011;1350;42.134;24.708;2024-01-30T11:04:50;14.80;;;9.85;;
2680;SDS011;1350;42.134;24.708;2024-01-30T11:07:25;12.57;;;9.20;;
2680;SDS011;1350;42.134;24.708;2024-01-30T11:09:59;14.25;;;8.27;;
2680;SDS011;1350;42.134;24.708;2024-01-30T11:12:30;21.65;;;8.27;;
2680;SDS011;1350;42.134;24.708;2024-01-30T11:15:03;15.77;;;8.73;;
2680;SDS011;1350;42.134;24.708;2024-01-30T11:17:44;11.25;;;7.80;;
2680;SDS011;1350;42.134;24.708;2024-01-30T11:20:16;12.00;;;9.43;;
2680;SDS011;1350;42.134;24.708;2024-01-30T11:22:46;21.30;;;8.82;;
2680;SDS011;1350;42.134;24.708;2024-01-30T11:25:14;11.20;;;7.93;;
2680;SDS011;1350;42.134;24.708;2024-01-30T11:27:43;23.23;;;7.65;;
2680;SDS011;1350;42.134;24.708;2024-01-30T11:30:11;20.08;;;12.77;;
2680;SDS011;1350;42.134;24.708;2024-01-30T11:32:57;9.88;;;5.30;;
2680;SDS011;1350;42.134;24.708;2024-01-30T11:35:25;16.20;;;7.60;;
2680;SDS011;1350;42.134;24.708;2024-01-30T11:41:04;16.40;;;7.47;;
2680;SDS011;1350;42.134;24.708;2024-01-30T11:43:50;13.20;;;4.85;;
2680;SDS011;1350;42.134;24.708;2024-01-30T11:46:18;8.85;;;5.57;;
2680;SDS011;1350;42.134;24.708;2024-01-30T11:48:45;9.25;;;4.20;;
2680;SDS011;1350;42.134;24.708;2024-01-30T11:51:12;7.60;;;4.35;;
2680;SDS011;1350;42.134;24.708;2024-01-30T11:53:41;20.90;;;6.00;;
2680;SDS011;1350;42.134;24.708;2024-01-30T11:56:08;10.75;;;5.40;;
2680;SDS011;1350;42.134;24.708;2024-01-30T11:58:35;8.82;;;4.75;;
2680;SDS011;1350;42.134;24.708;2024-01-30T12:01:03;10.05;;;4.88;;
2680;SDS011;1350;42.134;24.708;2024-01-30T12:03:30;8.48;;;4.75;;
2680;SDS011;1350;42.134;24.708;2024-01-30T12:05:57;17.48;;;9.95;;
2680;SDS011;1350;42.134;24.708;2024-01-30T12:08:24;9.48;;;5.35;;
2680;SDS011;1350;42.134;24.708;2024-01-30T12:10:56;7.70;;;5.13;;
2680;SDS011;1350;42.134;24.708;2024-01-30T12:13:24;9.55;;;4.70;;
2680;SDS011;1350;42.134;24.708;2024-01-30T12:15:51;11.25;;;4.53;;
2680;SDS011;1350;42.134;24.708;2024-01-30T12:18:20;8.02;;;4.68;;
2680;SDS011;1350;42.134;24.708;2024-01-30T12:20:56;7.88;;;4.65;;
2680;SDS011;1350;42.134;24.708;2024-01-30T12:23:24;18.02;;;5.78;;
2680;SDS011;1350;42.134;24.708;2024-01-30T12:25:51;11.95;;;4.53;;
2680;SDS011;1350;42.134;24.708;2024-01-30T12:28:18;9.60;;;6.85;;
2680;SDS011;1350;42.134;24.708;2024-01-30T12:30:45;10.57;;;5.15;;
2680;SDS011;1350;42.134;24.708;2024-01-30T12:33:15;7.30;;;4.50;;
2680;SDS011;1350;42.134;24.708;2024-01-30T12:35:46;7.47;;;4.22;;
2680;SDS011;1350;42.134;24.708;2024-01-30T12:38:13;35.50;;;8.25;;
2680;SDS011;1350;42.134;24.708;2024-01-30T12:40:41;14.23;;;5.82;;
2680;SDS011;1350;42.134;24.708;2024-01-30T12:43:08;7.97;;;4.38;;
2680;SDS011;1350;42.134;24.708;2024-01-30T12:45:35;7.72;;;4.65;;
2680;SDS011;1350;42.134;24.708;2024-01-30T12:48:02;9.90;;;4.95;;
2680;SDS011;1350;42.134;24.708;2024-01-30T12:50:30;10.52;;;5.20;;
2680;SDS011;1350;42.134;24.708;2024-01-30T12:52:58;9.25;;;5.25;;
2680;SDS011;1350;42.134;24.708;2024-01-30T12:55:25;13.38;;;5.90;;
2680;SDS011;1350;42.134;24.708;2024-01-30T12:57:53;39.08;;;8.77;;
2680;SDS011;1350;42.134;24.708;2024-01-30T13:00:20;47.90;;;10.45;;
2680;SDS011;1350;42.134;24.708;2024-01-30T13:02:47;23.00;;;6.55;;
2680;SDS011;1350;42.134;24.708;2024-01-30T13:05:15;16.10;;;4.95;;
2680;SDS011;1350;42.134;24.708;2024-01-30T13:07:42;9.88;;;4.88;;
2680;SDS011;1350;42.134;24.708;2024-01-30T13:10:10;9.38;;;5.10;;
2680;SDS011;1350;42.134;24.708;2024-01-30T13:12:37;8.60;;;4.70;;
2680;SDS011;1350;42.134;24.708;2024-01-30T13:15:05;10.27;;;5.60;;
2680;SDS011;1350;42.134;24.708;2024-01-30T13:17:33;10.63;;;5.82;;
2680;SDS011;1350;42.134;24.708;2024-01-30T13:20:01;13.27;;;7.03;;
2680;SDS011;1350;42.134;24.708;2024-01-30T13:22:29;11.05;;;5.57;;
2680;SDS011;1350;42.134;24.708;2024-01-30T13:24:56;12.27;;;6.50;;
2680;SDS011;1350;42.134;24.708;2024-01-30T13:27:25;13.68;;;7.85;;
2680;SDS011;1350;42.134;24.708;2024-01-30T13:29:52;11.23;;;6.57;;
2680;SDS011;1350;42.134;24.708;2024-01-30T13:32:19;13.75;;;7.10;;
2680;SDS011;1350;42.134;24.708;2024-01-30T13:34:46;14.13;;;7.13;;
2680;SDS011;1350;42.134;24.708;2024-01-30T13:37:13;9.85;;;6.18;;
2680;SDS011;1350;42.134;24.708;2024-01-30T13:39:40;20.25;;;8.52;;
2680;SDS011;1350;42.134;24.708;2024-01-30T13:42:08;12.35;;;7.20;;
2680;SDS011;1350;42.134;24.708;2024-01-30T13:44:36;14.75;;;8.27;;
2680;SDS011;1350;42.134;24.708;2024-01-30T13:47:03;12.70;;;8.55;;
2680;SDS011;1350;42.134;24.708;2024-01-30T13:49:31;12.75;;;8.25;;
2680;SDS011;1350;42.134;24.708;2024-01-30T13:51:58;11.35;;;5.55;;
2680;SDS011;1350;42.134;24.708;2024-01-30T13:54:25;9.30;;;5.05;;
2680;SDS011;1350;42.134;24.708;2024-01-30T13:56:52;10.35;;;5.97;;
2680;SDS011;1350;42.134;24.708;2024-01-30T13:59:19;11.30;;;5.55;;
2680;SDS011;1350;42.134;24.708;2024-01-30T14:01:51;9.65;;;4.97;;
2680;SDS011;1350;42.134;24.708;2024-01-30T14:04:18;9.57;;;6.10;;
2680;SDS011;1350;42.134;24.708;2024-01-30T14:06:45;20.60;;;6.43;;
2680;SDS011;1350;42.134;24.708;2024-01-30T14:09:12;14.13;;;6.60;;
2680;SDS011;1350;42.134;24.708;2024-01-30T14:11:40;18.00;;;6.95;;
2680;SDS011;1350;42.134;24.708;2024-01-30T14:14:08;15.32;;;6.60;;
2680;SDS011;1350;42.134;24.708;2024-01-30T14:16:35;12.75;;;5.53;;
2680;SDS011;1350;42.134;24.708;2024-01-30T14:19:04;10.88;;;5.90;;
2680;SDS011;1350;42.134;24.708;2024-01-30T14:21:32;12.50;;;5.63;;
2680;SDS011;1350;42.134;24.708;2024-01-30T14:23:59;14.07;;;5.85;;
2680;SDS011;1350;42.134;24.708;2024-01-30T14:26:26;13.70;;;4.80;;
2680;SDS011;1350;42.134;24.708;2024-01-30T14:28:53;16.75;;;6.50;;
2680;SDS011;1350;42.134;24.708;2024-01-30T14:31:20;11.95;;;5.80;;
2680;SDS011;1350;42.134;24.708;2024-01-30T14:33:49;12.57;;;5.80;;
2680;SDS011;1350;42.134;24.708;2024-01-30T14:36:18;11.90;;;5.90;;
2680;SDS011;1350;42.134;24.708;2024-01-30T14:38:45;10.90;;;5.78;;
2680;SDS011;1350;42.134;24.708;2024-01-30T14:41:12;9.48;;;5.40;;
2680;SDS011;1350;42.134;24.708;2024-01-30T14:43:39;12.73;;;6.75;;
2680;SDS011;1350;42.134;24.708;2024-01-30T14:46:06;18.42;;;5.72;;
2680;SDS011;1350;42.134;24.708;2024-01-30T14:48:33;9.88;;;5.80;;